Ana Sayfa
METAR-TAF:

METAR-TAF

Havaalanları :

Köstence, Romanya

Enlem: 44-20N, Boylam: 028-26E, yükseklik: 97 m

Güncel hava durumu gözlemi

Rapor saat 22:00 UTC de 30 dakika önce yapıldı.
Rüzgar batıdan 6 kt
Sıcaklık 3°C
Nem 70%
Basınç 1025 hPa
Görüş mesafesi 10 km veya daha fazla
1500 m altında bulut yok ve kümülonimbus yok

METAR: LRCK 202200Z 28006KT CAVOK 03/M02 Q1025 NOSIG

Saat: 01:30 (22:30 UTC)

Tahmin

Rapor saat 17:00 UTC de 5 saat ve 30 dakika önce yapıldı.
Ayın 20'si saat 18 UTC'den ayın 21'si saat 18 UTC'ye kadar geçerli Tahmin
Rüzgar değişken yönden 3 kt
Görüş mesafesi 10 km veya daha fazla
1500 m altında bulut yok ve kümülonimbus yok
Dönüşüyor
ayın 21'si saat 10 UTC'den ayın 21'si saat 12 UTC'ye kadar
Rüzgar doğu/güneydoğudan 10 kt
Geçici
ayın 21'si saat 12 UTC'den ayın 21'si saat 18 UTC'ye kadar
4000 ft yükseklikte az bulutlu, Kümülonimbus.

TAF: LRCK 201700Z 2018/2118 VRB03KT CAVOK BECMG 2110/2112 12010KT TEMPO 2112/2118 FEW040CB

4.000'den fazla havaalanı için hava durumu gözlemleri ve tahminleri (METAR ve TAF raporları).

Kullanılabilir istasyonlar harita üzerinde sarı ve kırmızı noktalarla gösterilir.

İstasyonun adını görmek için fareyi noktanın üzerinde gezdirin.

Sonrasında hava gözlem ve tahminlerini görmek için tıklayın.

Haritayı değiştirmek için: yaklaştırmak için siyah artı işaretli yeşil düğmeye ve uzaklaştırmak için de eksi işaretli düğmeye hızla tıklayın; bitişik haritalar için yeşil okları kullanın.


METAR-TAF: